createdAt,value
2019-03-23T00:00:45.811Z,58.17
2019-03-23T00:03:15.795Z,59.83
2019-03-23T00:05:45.773Z,57.67
2019-03-23T00:08:15.762Z,60.83
2019-03-23T00:10:45.764Z,58.70
2019-03-23T00:13:15.732Z,56.97
2019-03-23T00:15:45.746Z,58.40
2019-03-23T00:18:15.729Z,88.37
2019-03-23T00:20:45.752Z,71.83
2019-03-23T00:23:15.675Z,66.60
2019-03-23T00:25:45.640Z,59.33
2019-03-23T00:28:15.625Z,56.57
2019-03-23T00:30:45.577Z,57.77
2019-03-23T00:33:15.568Z,55.47
2019-03-23T00:35:45.535Z,57.20
2019-03-23T00:38:15.534Z,59.30
2019-03-23T00:40:45.513Z,59.47
2019-03-23T00:43:15.473Z,58.67
2019-03-23T00:45:45.464Z,65.20
2019-03-23T00:48:15.446Z,59.30
2019-03-23T00:50:45.439Z,84.77
2019-03-23T00:53:15.400Z,85.47
2019-03-23T00:55:45.391Z,72.30
2019-03-23T00:58:15.360Z,107.37
2019-03-23T01:00:45.321Z,63.23
2019-03-23T01:03:15.298Z,57.03
2019-03-23T01:05:45.261Z,73.17
2019-03-23T01:08:15.265Z,74.35
2019-03-23T01:10:45.215Z,59.87
2019-03-23T01:13:15.195Z,56.50
2019-03-23T01:15:45.148Z,57.73
2019-03-23T01:18:15.119Z,55.40
2019-03-23T01:20:49.699Z,58.67
2019-03-23T01:23:15.062Z,54.27
2019-03-23T01:25:45.040Z,55.23
2019-03-23T01:28:15.022Z,56.23
2019-03-23T01:30:44.970Z,55.67
2019-03-23T01:33:15.914Z,55.33
2019-03-23T01:35:45.882Z,63.60
2019-03-23T01:38:15.857Z,60.13
2019-03-23T01:40:45.846Z,70.35
2019-03-23T01:43:15.802Z,57.03
2019-03-23T01:45:45.775Z,51.70
2019-03-23T01:48:15.768Z,53.33
2019-03-23T01:50:45.717Z,53.40
2019-03-23T01:53:15.681Z,51.77
2019-03-23T01:55:45.682Z,50.70
2019-03-23T01:58:15.659Z,52.17
2019-03-23T02:00:45.670Z,53.10
2019-03-23T02:03:15.603Z,51.90
2019-03-23T02:05:45.572Z,50.57
2019-03-23T02:08:15.571Z,53.43
2019-03-23T02:10:45.546Z,50.60
2019-03-23T02:13:15.530Z,50.13
2019-03-23T02:15:45.484Z,51.37
2019-03-23T02:18:15.448Z,53.47
2019-03-23T02:20:45.426Z,101.07
2019-03-23T02:23:15.384Z,75.28
2019-03-23T02:25:45.353Z,51.40
2019-03-23T02:28:15.307Z,50.10
2019-03-23T02:30:45.308Z,48.87
2019-03-23T02:33:15.281Z,48.73
2019-03-23T02:35:45.239Z,48.07
2019-03-23T02:38:15.186Z,46.30
2019-03-23T02:40:45.199Z,47.30
2019-03-23T02:43:15.173Z,45.83
2019-03-23T02:45:45.150Z,57.95
2019-03-23T02:48:15.110Z,48.23
2019-03-23T02:50:45.081Z,46.60
2019-03-23T02:53:15.033Z,45.07
2019-03-23T02:55:45.022Z,43.40
2019-03-23T02:58:14.963Z,45.57
2019-03-23T03:00:44.960Z,45.50
2019-03-23T03:03:14.916Z,39.87
2019-03-23T03:05:44.871Z,44.20
2019-03-23T03:08:14.880Z,45.07
2019-03-23T03:10:44.853Z,44.03
2019-03-23T03:13:14.826Z,43.20
2019-03-23T03:15:44.800Z,44.40
2019-03-23T03:18:14.786Z,41.17
2019-03-23T03:20:44.764Z,45.13
2019-03-23T03:23:14.727Z,46.50
2019-03-23T03:25:44.694Z,43.17
2019-03-23T03:28:14.644Z,44.13
2019-03-23T03:30:44.590Z,44.13
2019-03-23T03:33:14.579Z,44.93
2019-03-23T03:35:44.560Z,44.83
2019-03-23T03:38:14.531Z,45.90
2019-03-23T03:40:44.520Z,58.28
2019-03-23T03:43:14.482Z,48.03
2019-03-23T03:45:44.423Z,46.23
2019-03-23T03:48:14.394Z,47.70
2019-03-23T03:50:44.423Z,56.42
2019-03-23T03:53:14.334Z,48.17
2019-03-23T03:55:44.358Z,43.67
2019-03-23T03:58:14.248Z,45.13
2019-03-23T04:00:44.190Z,43.97
2019-03-23T04:03:14.151Z,43.93
2019-03-23T04:05:44.128Z,43.03
2019-03-23T04:08:14.101Z,43.53
2019-03-23T04:10:44.088Z,46.10
2019-03-23T04:13:14.032Z,41.90
2019-03-23T04:15:43.990Z,55.48
2019-03-23T04:18:13.950Z,46.37
2019-03-23T04:20:43.935Z,46.00
2019-03-23T04:23:13.901Z,45.90
2019-03-23T04:25:43.908Z,57.75
2019-03-23T04:28:13.848Z,55.78
2019-03-23T04:30:43.810Z,53.75
2019-03-23T04:33:13.786Z,44.90
2019-03-23T04:35:43.754Z,43.53
2019-03-23T04:38:22.238Z,42.80
2019-03-23T04:40:43.722Z,42.10
2019-03-23T04:43:13.703Z,39.70
2019-03-23T04:45:43.665Z,37.93
2019-03-23T04:48:13.646Z,38.60
2019-03-23T04:50:43.605Z,39.20
2019-03-23T04:53:13.598Z,36.40
2019-03-23T04:55:43.565Z,35.40
2019-03-23T04:58:13.629Z,35.10
2019-03-23T05:00:43.597Z,34.40
2019-03-23T05:03:13.567Z,37.07
2019-03-23T05:05:43.527Z,43.35
2019-03-23T05:08:13.493Z,37.13
2019-03-23T05:10:43.474Z,44.33
2019-03-23T05:13:13.444Z,33.50
2019-03-23T05:15:43.407Z,34.20
2019-03-23T05:18:13.371Z,34.07
2019-03-23T05:20:43.329Z,49.35
2019-03-23T05:23:13.302Z,38.23
2019-03-23T05:25:43.312Z,56.37
2019-03-23T05:28:13.339Z,44.23
2019-03-23T05:30:43.338Z,46.03
2019-03-23T05:33:13.309Z,38.80
2019-03-23T05:35:43.291Z,40.40
2019-03-23T05:38:13.255Z,43.07
2019-03-23T05:40:43.222Z,41.80
2019-03-23T05:43:13.232Z,41.03
2019-03-23T05:45:43.204Z,37.10
2019-03-23T05:48:13.158Z,44.30
2019-03-23T05:50:43.134Z,40.93
2019-03-23T05:53:13.092Z,46.33
2019-03-23T05:55:43.067Z,47.10
2019-03-23T05:58:13.043Z,47.60
2019-03-23T06:00:43.006Z,50.43
2019-03-23T06:03:12.982Z,47.77
2019-03-23T06:05:42.931Z,48.57
2019-03-23T06:08:12.901Z,48.97
2019-03-23T06:10:42.854Z,49.97
2019-03-23T06:13:12.827Z,50.43
2019-03-23T06:15:42.795Z,63.78
2019-03-23T06:18:12.800Z,52.97
2019-03-23T06:20:42.766Z,51.03
2019-03-23T06:23:12.745Z,52.37
2019-03-23T06:25:42.726Z,50.63
2019-03-23T06:28:12.695Z,50.97
2019-03-23T06:30:42.670Z,51.53
2019-03-23T06:33:12.659Z,54.43
2019-03-23T06:35:42.659Z,52.67
2019-03-23T06:38:12.632Z,53.37
2019-03-23T06:40:42.624Z,52.37
2019-03-23T06:43:12.602Z,67.60
2019-03-23T06:45:42.569Z,56.23
2019-03-23T06:48:12.533Z,55.50
2019-03-23T06:50:42.537Z,55.93
2019-03-23T06:53:12.480Z,53.53
2019-03-23T06:55:42.442Z,54.20
2019-03-23T06:58:12.409Z,55.10
2019-03-23T07:00:42.380Z,53.07
2019-03-23T07:03:12.370Z,52.90
2019-03-23T07:05:42.334Z,54.07
2019-03-23T07:08:12.316Z,55.57
2019-03-23T07:10:42.290Z,53.77
2019-03-23T07:13:12.276Z,55.27
2019-03-23T07:15:42.224Z,54.13
2019-03-23T07:18:12.182Z,67.42
2019-03-23T07:20:42.157Z,56.73
2019-03-23T07:23:12.124Z,55.27
2019-03-23T07:25:42.105Z,54.17
2019-03-23T07:28:12.069Z,53.87
2019-03-23T07:30:42.050Z,54.53
2019-03-23T07:33:12.019Z,54.80
2019-03-23T07:35:41.997Z,53.83
2019-03-23T07:38:11.944Z,55.47
2019-03-23T07:40:41.939Z,52.97
2019-03-23T07:43:11.950Z,53.97
2019-03-23T07:45:41.932Z,66.05
2019-03-23T07:48:11.929Z,54.57
2019-03-23T07:50:41.863Z,53.37
2019-03-23T07:53:11.853Z,55.57
2019-03-23T07:55:41.805Z,53.03
2019-03-23T07:58:11.963Z,52.50
2019-03-23T08:00:41.839Z,52.17
2019-03-23T08:03:11.799Z,52.93
2019-03-23T08:05:41.799Z,53.13
2019-03-23T08:08:11.752Z,50.43
2019-03-23T08:10:41.734Z,51.17
2019-03-23T08:13:11.761Z,50.17
2019-03-23T08:15:41.706Z,62.08
2019-03-23T08:18:11.685Z,52.87
2019-03-23T08:20:41.668Z,52.90
2019-03-23T08:23:11.639Z,50.80
2019-03-23T08:25:41.587Z,50.10
2019-03-23T08:28:11.564Z,61.77
2019-03-23T08:30:41.537Z,52.00
2019-03-23T08:33:11.526Z,51.47
2019-03-23T08:35:41.520Z,50.47
2019-03-23T08:38:11.501Z,48.27
2019-03-23T08:40:41.479Z,48.63
2019-03-23T08:43:11.451Z,50.00
2019-03-23T08:45:41.428Z,49.00
2019-03-23T08:48:11.392Z,60.45
2019-03-23T08:50:41.372Z,52.83
2019-03-23T08:53:11.363Z,48.20
2019-03-23T08:55:41.336Z,48.90
2019-03-23T08:58:11.314Z,51.83
2019-03-23T09:00:41.288Z,64.12
2019-03-23T09:03:11.265Z,49.13
2019-03-23T09:05:41.244Z,49.20
2019-03-23T09:08:11.317Z,46.87
2019-03-23T09:10:41.289Z,47.63
2019-03-23T09:13:11.302Z,48.00
2019-03-23T09:15:41.270Z,46.80
2019-03-23T09:18:11.278Z,45.10
2019-03-23T09:20:41.255Z,46.50
2019-03-23T09:23:11.312Z,48.40
2019-03-23T09:25:41.294Z,47.37
2019-03-23T09:28:11.253Z,45.03
2019-03-23T09:30:41.225Z,53.50
2019-03-23T09:33:11.181Z,46.80
2019-03-23T09:35:41.156Z,58.83
2019-03-23T09:38:11.176Z,44.73
2019-03-23T09:40:41.155Z,65.17
2019-03-23T09:43:11.312Z,86.40
2019-03-23T09:45:41.263Z,43.63
2019-03-23T09:48:11.313Z,43.10
2019-03-23T09:50:41.253Z,40.50
2019-03-23T09:53:11.249Z,41.40
2019-03-23T09:55:41.187Z,39.83
2019-03-23T09:58:11.175Z,42.47
2019-03-23T10:00:41.141Z,39.90
2019-03-23T10:03:11.137Z,41.23
2019-03-23T10:05:41.126Z,40.70
2019-03-23T10:08:11.081Z,40.60
2019-03-23T10:10:41.065Z,40.17
2019-03-23T10:13:11.017Z,40.77
2019-03-23T10:15:41.002Z,49.37
2019-03-23T10:18:11.043Z,79.03
2019-03-23T10:20:41.029Z,52.13
2019-03-23T10:23:11.178Z,47.90
2019-03-23T10:25:41.162Z,42.27
2019-03-23T10:28:11.124Z,40.47
2019-03-23T10:30:41.108Z,40.67
2019-03-23T10:33:11.088Z,40.40
2019-03-23T10:35:41.085Z,39.13
2019-03-23T10:38:11.271Z,49.50
2019-03-23T10:40:42.973Z,42.57
2019-03-23T10:43:11.301Z,40.90
2019-03-23T10:45:44.344Z,38.77
2019-03-23T10:48:12.245Z,62.30
2019-03-23T10:50:41.278Z,39.97
2019-03-23T10:53:11.242Z,45.97
2019-03-23T10:55:41.191Z,47.43
2019-03-23T10:58:11.250Z,39.93
2019-03-23T11:00:41.254Z,41.33
2019-03-23T11:03:11.229Z,40.83
2019-03-23T11:05:41.193Z,40.03
2019-03-23T11:08:11.164Z,40.57
2019-03-23T11:10:42.036Z,40.13
2019-03-23T11:13:11.149Z,38.30
2019-03-23T11:15:41.148Z,38.33
2019-03-23T11:18:11.119Z,40.20
2019-03-23T11:20:41.080Z,39.67
2019-03-23T11:23:11.057Z,39.37
2019-03-23T11:25:41.040Z,37.70
2019-03-23T11:28:11.103Z,38.37
2019-03-23T11:30:41.074Z,38.70
2019-03-23T11:33:11.037Z,39.00
2019-03-23T11:35:41.034Z,38.10
2019-03-23T11:38:11.250Z,69.87
2019-03-23T11:40:41.242Z,48.30
2019-03-23T11:43:11.427Z,39.83
2019-03-23T11:45:41.417Z,40.03
2019-03-23T11:48:11.445Z,38.60
2019-03-23T11:50:41.414Z,38.80
2019-03-23T11:53:11.405Z,37.30
2019-03-23T11:55:41.398Z,36.60
2019-03-23T11:58:11.382Z,35.87
2019-03-23T12:00:41.392Z,36.73
2019-03-23T12:03:11.359Z,34.60
2019-03-23T12:05:41.338Z,34.93
2019-03-23T12:08:11.331Z,36.20
2019-03-23T12:10:41.285Z,36.30
2019-03-23T12:13:11.293Z,41.60
2019-03-23T12:15:41.269Z,51.77
2019-03-23T12:18:11.255Z,54.57
2019-03-23T12:20:41.237Z,58.53
2019-03-23T12:23:11.216Z,38.03
2019-03-23T12:25:41.175Z,40.23
2019-03-23T12:28:11.228Z,39.80
2019-03-23T12:30:41.194Z,41.17
2019-03-23T12:33:11.186Z,39.17
2019-03-23T12:35:41.158Z,38.63
2019-03-23T12:38:11.226Z,38.60
2019-03-23T12:40:41.212Z,38.73
2019-03-23T12:43:11.196Z,39.17
2019-03-23T12:45:41.184Z,39.97
2019-03-23T12:48:11.179Z,40.53
2019-03-23T12:50:41.147Z,40.67
2019-03-23T12:53:11.117Z,40.63
2019-03-23T12:55:41.087Z,49.27
2019-03-23T12:58:11.163Z,55.93
2019-03-23T13:00:41.123Z,44.73
2019-03-23T13:03:11.209Z,48.63
2019-03-23T13:05:41.174Z,47.40
2019-03-23T13:08:11.155Z,45.73
2019-03-23T13:10:41.107Z,36.93
2019-03-23T13:13:11.074Z,39.73
2019-03-23T13:15:41.098Z,38.27
2019-03-23T13:18:11.067Z,38.37
2019-03-23T13:20:41.066Z,38.17
2019-03-23T13:23:12.694Z,33.00
2019-03-23T13:25:41.136Z,34.17
2019-03-23T13:28:11.166Z,33.43
2019-03-23T13:30:41.143Z,33.37
2019-03-23T13:33:11.136Z,37.63
2019-03-23T13:35:41.087Z,36.55
2019-03-23T13:38:11.168Z,30.63
2019-03-23T13:40:41.125Z,29.80
2019-03-23T13:43:11.116Z,29.40
2019-03-23T13:45:42.765Z,27.57
2019-03-23T13:48:11.134Z,27.90
2019-03-23T13:50:41.114Z,30.90
2019-03-23T13:53:11.083Z,26.10
2019-03-23T13:55:41.044Z,25.80
2019-03-23T13:58:12.291Z,23.27
2019-03-23T14:00:42.247Z,19.20
2019-03-23T14:03:12.217Z,19.83
2019-03-23T14:05:42.211Z,14.00
2019-03-23T14:08:12.189Z,12.23
2019-03-23T14:10:42.155Z,10.03
2019-03-23T14:13:12.159Z,10.20
2019-03-23T14:15:42.870Z,8.67
2019-03-23T14:18:13.338Z,8.57
2019-03-23T14:20:46.212Z,7.70
2019-03-23T14:23:16.526Z,7.07
2019-03-23T14:25:46.592Z,5.83
2019-03-23T14:28:17.532Z,4.70
2019-03-23T14:30:47.932Z,4.20
2019-03-23T14:33:21.287Z,4.40
2019-03-23T14:35:51.889Z,3.87
2019-03-23T14:38:21.965Z,3.80
2019-03-23T14:40:52.326Z,3.93
2019-03-23T14:43:27.442Z,3.33
2019-03-23T14:46:00.786Z,3.37
2019-03-23T14:48:31.034Z,3.47
2019-03-23T14:51:03.712Z,3.37
2019-03-23T14:53:35.049Z,3.07
2019-03-23T14:56:06.917Z,3.30
2019-03-23T14:58:37.254Z,3.30
2019-03-23T15:01:08.774Z,2.77
2019-03-23T15:03:39.145Z,2.73
2019-03-23T15:06:11.962Z,2.67
2019-03-23T15:08:45.039Z,2.60
2019-03-23T15:11:15.293Z,2.57
2019-03-23T15:13:51.022Z,2.40
2019-03-23T15:16:21.303Z,2.70
2019-03-23T15:18:51.697Z,2.73
2019-03-23T15:21:21.775Z,2.37
2019-03-23T15:23:54.879Z,2.23
2019-03-23T15:26:24.901Z,2.60
2019-03-23T15:28:55.202Z,2.80
2019-03-23T15:31:26.010Z,2.80
2019-03-23T15:33:56.222Z,2.67
2019-03-23T15:36:29.416Z,3.40
2019-03-23T15:38:59.576Z,3.57
2019-03-23T15:41:32.802Z,3.63
2019-03-23T15:44:05.064Z,4.57
2019-03-23T15:46:38.882Z,4.87
2019-03-23T15:49:09.395Z,4.33
2019-03-23T15:51:39.619Z,4.27
2019-03-23T15:54:09.925Z,3.80
2019-03-23T15:56:43.319Z,3.67
2019-03-23T15:59:13.444Z,3.90
2019-03-23T16:01:43.759Z,4.27
2019-03-23T16:04:18.611Z,3.93
2019-03-23T16:06:46.521Z,3.87
2019-03-23T16:09:21.926Z,4.40
2019-03-23T16:11:52.018Z,4.37
2019-03-23T16:14:25.538Z,4.17
2019-03-23T16:16:55.591Z,4.77
2019-03-23T16:19:26.069Z,4.53
2019-03-23T16:21:56.592Z,4.00
2019-03-23T16:24:26.776Z,4.83
2019-03-23T16:27:05.580Z,4.13
2019-03-23T16:29:36.155Z,4.73
2019-03-23T16:32:06.469Z,4.30
2019-03-23T16:34:38.565Z,4.10
2019-03-23T16:37:11.717Z,4.20
2019-03-23T16:39:43.921Z,4.30
2019-03-23T16:42:14.155Z,4.00
2019-03-23T16:44:46.735Z,4.50
2019-03-23T16:47:26.071Z,3.97
2019-03-23T16:50:01.635Z,3.50
2019-03-23T16:52:30.175Z,3.97
2019-03-23T16:55:11.454Z,4.00
2019-03-23T16:57:38.897Z,3.90
2019-03-23T17:00:12.026Z,3.70
2019-03-23T17:02:44.880Z,4.00
2019-03-23T17:05:23.769Z,4.33
2019-03-23T17:07:54.535Z,4.13
2019-03-23T17:10:27.310Z,4.30
2019-03-23T17:12:57.297Z,3.80
2019-03-23T17:15:27.991Z,3.50
2019-03-23T17:18:00.899Z,3.93
2019-03-23T17:20:32.033Z,3.80
2019-03-23T17:23:02.580Z,3.67
2019-03-23T17:25:32.594Z,3.60
2019-03-23T17:28:02.620Z,3.60
2019-03-23T17:30:32.586Z,3.70
2019-03-23T17:33:02.562Z,4.03
2019-03-23T17:35:32.506Z,3.70
2019-03-23T17:38:02.479Z,3.77
2019-03-23T17:40:32.425Z,3.70
2019-03-23T17:43:06.271Z,3.60
2019-03-23T17:45:32.378Z,4.47
2019-03-23T17:48:02.331Z,4.13
2019-03-23T17:50:32.339Z,4.10
2019-03-23T17:53:02.309Z,4.70
2019-03-23T17:55:32.304Z,4.83
2019-03-23T17:58:02.270Z,4.27
2019-03-23T18:00:32.245Z,4.03
2019-03-23T18:03:02.231Z,3.10
2019-03-23T18:05:32.185Z,3.50
2019-03-23T18:08:02.167Z,3.90
2019-03-23T18:10:32.121Z,4.60
2019-03-23T18:13:02.123Z,4.20
2019-03-23T18:15:32.080Z,3.77
2019-03-23T18:18:02.026Z,3.90
2019-03-23T18:20:32.005Z,3.40
2019-03-23T18:23:01.974Z,3.60
2019-03-23T18:25:31.933Z,3.57
2019-03-23T18:28:01.933Z,3.30
2019-03-23T18:30:48.821Z,3.53
2019-03-23T18:33:18.794Z,3.13
2019-03-23T18:35:48.789Z,3.40
2019-03-23T18:38:18.762Z,3.83
2019-03-23T18:40:48.696Z,4.17
2019-03-23T18:43:27.063Z,4.40
2019-03-23T18:45:48.647Z,3.93
2019-03-23T18:48:18.608Z,4.03
2019-03-23T18:50:48.558Z,2.97
2019-03-23T18:53:18.528Z,3.23
2019-03-23T18:55:48.475Z,3.67
2019-03-23T18:58:18.426Z,3.13
2019-03-23T19:00:48.391Z,4.35
2019-03-23T19:03:18.357Z,3.63
2019-03-23T19:05:48.303Z,3.60
2019-03-23T19:08:18.258Z,3.27
2019-03-23T19:10:48.214Z,3.60
2019-03-23T19:13:18.184Z,3.17
2019-03-23T19:15:48.127Z,3.57
2019-03-23T19:18:18.098Z,5.80
2019-03-23T19:20:48.070Z,3.13
2019-03-23T19:23:18.017Z,3.93
2019-03-23T19:25:47.992Z,5.23
2019-03-23T19:28:17.953Z,12.63
2019-03-23T19:30:47.910Z,7.03
2019-03-23T19:33:17.843Z,5.33
2019-03-23T19:35:47.832Z,5.10
2019-03-23T19:38:18.263Z,4.23
2019-03-23T19:40:47.772Z,5.45
2019-03-23T19:43:17.721Z,3.50
2019-03-23T19:45:47.689Z,4.83
2019-03-23T19:48:17.664Z,4.50
2019-03-23T19:50:47.619Z,4.13
2019-03-23T19:53:17.559Z,4.30
2019-03-23T19:55:47.502Z,4.63
2019-03-23T19:58:17.469Z,4.17
2019-03-23T20:00:47.459Z,4.30
2019-03-23T20:03:19.178Z,3.90
2019-03-23T20:05:47.438Z,4.20
2019-03-23T20:08:17.379Z,5.00
2019-03-23T20:10:47.330Z,5.33
2019-03-23T20:13:17.301Z,5.50
2019-03-23T20:15:47.268Z,6.27
2019-03-23T20:18:17.241Z,5.17
2019-03-23T20:20:47.185Z,4.43
2019-03-23T20:23:17.170Z,4.83
2019-03-23T20:25:47.122Z,4.63
2019-03-23T20:28:17.089Z,4.23
2019-03-23T20:30:47.082Z,4.70
2019-03-23T20:33:19.679Z,4.40
2019-03-23T20:35:47.039Z,4.20
2019-03-23T20:38:17.014Z,4.17
2019-03-23T20:40:46.996Z,4.17
2019-03-23T20:43:17.011Z,4.17
2019-03-23T20:45:46.963Z,4.83
2019-03-23T20:48:16.910Z,5.58
2019-03-23T20:50:46.896Z,4.57
2019-03-23T20:53:17.076Z,4.40
2019-03-23T20:55:47.037Z,7.13
2019-03-23T20:58:16.983Z,4.90
2019-03-23T21:00:46.938Z,5.05
2019-03-23T21:03:16.906Z,4.33
2019-03-23T21:05:46.918Z,5.60
2019-03-23T21:08:16.875Z,4.20
2019-03-23T21:10:46.852Z,4.23
2019-03-23T21:13:16.808Z,4.23
2019-03-23T21:15:46.739Z,5.05
2019-03-23T21:18:16.712Z,4.30
2019-03-23T21:20:46.666Z,4.50
2019-03-23T21:23:16.634Z,6.20
2019-03-23T21:25:46.605Z,4.80
2019-03-23T21:28:16.552Z,5.73
2019-03-23T21:30:46.516Z,4.67
2019-03-23T21:33:16.449Z,5.72
2019-03-23T21:35:46.422Z,4.40
2019-03-23T21:38:16.379Z,4.10
2019-03-23T21:40:46.342Z,4.50
2019-03-23T21:43:16.285Z,4.77
2019-03-23T21:45:46.276Z,5.07
2019-03-23T21:48:16.256Z,4.03
2019-03-23T21:50:47.689Z,4.60
2019-03-23T21:53:16.216Z,3.73
2019-03-23T21:55:46.180Z,4.03
2019-03-23T21:58:16.146Z,4.70
2019-03-23T22:00:46.097Z,4.80
2019-03-23T22:03:16.053Z,4.73
2019-03-23T22:05:46.025Z,4.63
2019-03-23T22:08:15.973Z,5.70
2019-03-23T22:10:45.933Z,6.50
2019-03-23T22:13:15.918Z,6.77
2019-03-23T22:15:45.895Z,7.17
2019-03-23T22:18:15.850Z,5.50
2019-03-23T22:20:45.818Z,5.30
2019-03-23T22:23:15.797Z,6.47
2019-03-23T22:25:45.760Z,5.80
2019-03-23T22:28:15.844Z,7.30
2019-03-23T22:30:45.792Z,5.07
2019-03-23T22:33:15.741Z,4.83
2019-03-23T22:35:45.702Z,4.53
2019-03-23T22:38:15.659Z,4.97
2019-03-23T22:40:45.628Z,4.90
2019-03-23T22:43:15.623Z,4.60
2019-03-23T22:45:45.582Z,4.20
2019-03-23T22:48:15.546Z,4.20
2019-03-23T22:50:45.497Z,4.23
2019-03-23T22:53:15.439Z,4.07
2019-03-23T22:55:45.409Z,4.43
2019-03-23T22:58:15.355Z,4.57
2019-03-23T23:00:46.260Z,4.50
2019-03-23T23:03:16.218Z,4.47
2019-03-23T23:05:46.179Z,4.40
2019-03-23T23:08:16.146Z,4.30
2019-03-23T23:10:46.104Z,4.07
2019-03-23T23:13:16.066Z,3.50
2019-03-23T23:15:46.041Z,4.40
2019-03-23T23:18:15.985Z,4.57
2019-03-23T23:20:45.968Z,4.97
2019-03-23T23:23:15.904Z,4.73
2019-03-23T23:25:45.861Z,6.07
2019-03-23T23:28:15.834Z,4.97
2019-03-23T23:30:45.792Z,4.10
2019-03-23T23:33:15.754Z,4.90
2019-03-23T23:35:45.725Z,4.67
2019-03-23T23:38:15.688Z,4.23
2019-03-23T23:40:45.635Z,5.03
2019-03-23T23:43:15.609Z,4.80
2019-03-23T23:45:45.590Z,4.63
2019-03-23T23:48:15.573Z,4.20
2019-03-23T23:50:45.518Z,3.73
2019-03-23T23:53:15.496Z,4.20
2019-03-23T23:55:45.444Z,4.30
2019-03-23T23:58:15.400Z,5.20
